sensor_id;sensor_type;location;lat;lon;timestamp;temperature;humidity
40702;DHT22;26387;50.114;8.662;2022-09-27T00:01:08;13.00;99.10
40702;DHT22;26387;50.114;8.662;2022-09-27T00:03:34;13.00;99.20
40702;DHT22;26387;50.114;8.662;2022-09-27T00:08:29;13.10;99.30
40702;DHT22;26387;50.114;8.662;2022-09-27T00:10:59;13.20;99.20
40702;DHT22;26387;50.114;8.662;2022-09-27T00:13:25;13.20;98.40
40702;DHT22;26387;50.114;8.662;2022-09-27T00:15:59;13.20;98.50
40702;DHT22;26387;50.114;8.662;2022-09-27T00:18:26;13.20;98.40
40702;DHT22;26387;50.114;8.662;2022-09-27T00:20:51;13.20;98.70
40702;DHT22;26387;50.114;8.662;2022-09-27T00:23:17;13.10;98.50
40702;DHT22;26387;50.114;8.662;2022-09-27T00:25:53;13.10;98.60
40702;DHT22;26387;50.114;8.662;2022-09-27T00:28:19;13.00;98.80
40702;DHT22;26387;50.114;8.662;2022-09-27T00:30:44;13.10;99.10
40702;DHT22;26387;50.114;8.662;2022-09-27T00:33:10;13.00;98.50
40702;DHT22;26387;50.114;8.662;2022-09-27T00:35:35;13.00;99.10
40702;DHT22;26387;50.114;8.662;2022-09-27T00:38:01;13.20;99.20
40702;DHT22;26387;50.114;8.662;2022-09-27T00:40:27;13.20;99.10
40702;DHT22;26387;50.114;8.662;2022-09-27T00:42:52;13.30;99.00
40702;DHT22;26387;50.114;8.662;2022-09-27T00:45:18;13.30;98.90
40702;DHT22;26387;50.114;8.662;2022-09-27T00:47:51;13.40;98.70
40702;DHT22;26387;50.114;8.662;2022-09-27T00:50:21;13.40;98.80
40702;DHT22;26387;50.114;8.662;2022-09-27T00:52:59;13.50;98.70
40702;DHT22;26387;50.114;8.662;2022-09-27T00:55:27;13.50;98.10
40702;DHT22;26387;50.114;8.662;2022-09-27T00:57:54;13.50;98.00
40702;DHT22;26387;50.114;8.662;2022-09-27T01:00:20;13.50;97.80
40702;DHT22;26387;50.114;8.662;2022-09-27T01:02:48;13.50;98.20
40702;DHT22;26387;50.114;8.662;2022-09-27T01:05:15;13.40;98.50
40702;DHT22;26387;50.114;8.662;2022-09-27T01:07:41;13.50;98.20
40702;DHT22;26387;50.114;8.662;2022-09-27T01:10:10;13.40;98.30
40702;DHT22;26387;50.114;8.662;2022-09-27T01:20:23;13.60;98.60
40702;DHT22;26387;50.114;8.662;2022-09-27T01:33:41;13.50;98.20
40702;DHT22;26387;50.114;8.662;2022-09-27T01:39:07;13.50;98.50
40702;DHT22;26387;50.114;8.662;2022-09-27T01:41:43;13.50;98.50
40702;DHT22;26387;50.114;8.662;2022-09-27T01:44:19;13.50;98.50
40702;DHT22;26387;50.114;8.662;2022-09-27T01:46:47;13.50;98.40
40702;DHT22;26387;50.114;8.662;2022-09-27T01:49:19;13.40;98.40
40702;DHT22;26387;50.114;8.662;2022-09-27T01:51:49;13.40;98.40
40702;DHT22;26387;50.114;8.662;2022-09-27T01:54:18;13.30;98.50
40702;DHT22;26387;50.114;8.662;2022-09-27T01:56:47;13.30;98.50
40702;DHT22;26387;50.114;8.662;2022-09-27T01:59:48;13.30;98.50
40702;DHT22;26387;50.114;8.662;2022-09-27T02:02:06;13.20;98.80
40702;DHT22;26387;50.114;8.662;2022-09-27T02:04:33;13.30;99.10
40702;DHT22;26387;50.114;8.662;2022-09-27T02:07:04;13.30;99.00
40702;DHT22;26387;50.114;8.662;2022-09-27T02:09:36;13.30;99.00
40702;DHT22;26387;50.114;8.662;2022-09-27T02:12:04;13.30;99.10
40702;DHT22;26387;50.114;8.662;2022-09-27T02:15:05;13.40;99.10
40702;DHT22;26387;50.114;8.662;2022-09-27T02:22:35;13.50;98.40
40702;DHT22;26387;50.114;8.662;2022-09-27T02:30:12;13.40;98.90
40702;DHT22;26387;50.114;8.662;2022-09-27T02:32:38;13.30;98.70
40702;DHT22;26387;50.114;8.662;2022-09-27T02:35:05;13.30;98.80
40702;DHT22;26387;50.114;8.662;2022-09-27T02:37:32;13.30;98.70
40702;DHT22;26387;50.114;8.662;2022-09-27T02:39:58;13.30;98.70
40702;DHT22;26387;50.114;8.662;2022-09-27T02:42:24;13.30;98.50
40702;DHT22;26387;50.114;8.662;2022-09-27T02:44:50;13.20;98.70
40702;DHT22;26387;50.114;8.662;2022-09-27T02:52:26;13.20;98.80
40702;DHT22;26387;50.114;8.662;2022-09-27T02:55:03;13.30;98.70
40702;DHT22;26387;50.114;8.662;2022-09-27T03:00:18;13.20;98.60
40702;DHT22;26387;50.114;8.662;2022-09-27T03:05:16;13.30;98.60
40702;DHT22;26387;50.114;8.662;2022-09-27T03:07:42;13.30;98.10
40702;DHT22;26387;50.114;8.662;2022-09-27T03:10:14;13.40;98.40
40702;DHT22;26387;50.114;8.662;2022-09-27T03:12:39;13.40;98.10
40702;DHT22;26387;50.114;8.662;2022-09-27T03:15:05;13.40;98.10
40702;DHT22;26387;50.114;8.662;2022-09-27T03:17:30;13.40;98.10
40702;DHT22;26387;50.114;8.662;2022-09-27T03:19:56;13.50;98.00
40702;DHT22;26387;50.114;8.662;2022-09-27T03:22:21;13.40;97.70
40702;DHT22;26387;50.114;8.662;2022-09-27T03:24:47;13.40;98.20
40702;DHT22;26387;50.114;8.662;2022-09-27T03:27:13;13.30;98.10
40702;DHT22;26387;50.114;8.662;2022-09-27T03:29:38;13.40;98.30
40702;DHT22;26387;50.114;8.662;2022-09-27T03:32:04;13.40;98.20
40702;DHT22;26387;50.114;8.662;2022-09-27T03:34:29;13.40;98.10
40702;DHT22;26387;50.114;8.662;2022-09-27T03:36:55;13.50;97.80
40702;DHT22;26387;50.114;8.662;2022-09-27T03:39:20;13.40;97.20
40702;DHT22;26387;50.114;8.662;2022-09-27T03:41:49;13.30;97.10
40702;DHT22;26387;50.114;8.662;2022-09-27T03:44:15;13.30;96.80
40702;DHT22;26387;50.114;8.662;2022-09-27T03:46:40;13.40;96.80
40702;DHT22;26387;50.114;8.662;2022-09-27T03:49:05;13.40;96.30
40702;DHT22;26387;50.114;8.662;2022-09-27T03:51:31;13.50;96.30
40702;DHT22;26387;50.114;8.662;2022-09-27T03:53:56;13.40;96.00
40702;DHT22;26387;50.114;8.662;2022-09-27T03:56:22;13.30;96.00
40702;DHT22;26387;50.114;8.662;2022-09-27T03:58:47;13.20;96.00
40702;DHT22;26387;50.114;8.662;2022-09-27T04:01:13;13.30;95.90
40702;DHT22;26387;50.114;8.662;2022-09-27T04:03:38;13.20;95.90
40702;DHT22;26387;50.114;8.662;2022-09-27T04:06:04;13.20;95.50
40702;DHT22;26387;50.114;8.662;2022-09-27T04:08:30;13.20;95.80
40702;DHT22;26387;50.114;8.662;2022-09-27T04:10:56;13.20;95.60
40702;DHT22;26387;50.114;8.662;2022-09-27T04:13:24;13.20;95.50
40702;DHT22;26387;50.114;8.662;2022-09-27T04:15:50;13.30;95.20
40702;DHT22;26387;50.114;8.662;2022-09-27T04:18:15;13.30;95.00
40702;DHT22;26387;50.114;8.662;2022-09-27T04:20:41;13.20;94.90
40702;DHT22;26387;50.114;8.662;2022-09-27T04:23:07;13.20;94.80
40702;DHT22;26387;50.114;8.662;2022-09-27T04:25:33;13.20;95.00
40702;DHT22;26387;50.114;8.662;2022-09-27T04:27:58;13.20;95.10
40702;DHT22;26387;50.114;8.662;2022-09-27T04:30:25;13.10;94.60
40702;DHT22;26387;50.114;8.662;2022-09-27T04:32:51;13.10;95.00
40702;DHT22;26387;50.114;8.662;2022-09-27T04:35:16;13.10;95.30
40702;DHT22;26387;50.114;8.662;2022-09-27T04:38:01;13.10;94.70
40702;DHT22;26387;50.114;8.662;2022-09-27T04:40:26;13.00;95.10
40702;DHT22;26387;50.114;8.662;2022-09-27T04:42:52;13.00;94.90
40702;DHT22;26387;50.114;8.662;2022-09-27T04:45:18;12.90;95.00
40702;DHT22;26387;50.114;8.662;2022-09-27T04:47:44;12.90;95.20
40702;DHT22;26387;50.114;8.662;2022-09-27T04:50:10;12.90;95.00
40702;DHT22;26387;50.114;8.662;2022-09-27T04:52:36;12.90;95.40
40702;DHT22;26387;50.114;8.662;2022-09-27T04:55:02;12.90;95.60
40702;DHT22;26387;50.114;8.662;2022-09-27T04:57:27;12.90;95.60
40702;DHT22;26387;50.114;8.662;2022-09-27T04:59:53;12.80;95.60
40702;DHT22;26387;50.114;8.662;2022-09-27T05:02:18;12.90;95.80
40702;DHT22;26387;50.114;8.662;2022-09-27T05:04:44;12.80;95.80
40702;DHT22;26387;50.114;8.662;2022-09-27T05:07:09;12.80;95.70
40702;DHT22;26387;50.114;8.662;2022-09-27T05:09:35;12.90;95.70
40702;DHT22;26387;50.114;8.662;2022-09-27T05:12:00;13.00;96.10
40702;DHT22;26387;50.114;8.662;2022-09-27T05:14:26;13.10;95.80
40702;DHT22;26387;50.114;8.662;2022-09-27T05:16:52;13.10;95.60
40702;DHT22;26387;50.114;8.662;2022-09-27T05:19:18;13.10;95.00
40702;DHT22;26387;50.114;8.662;2022-09-27T05:21:43;12.90;95.00
40702;DHT22;26387;50.114;8.662;2022-09-27T05:24:09;12.80;95.10
40702;DHT22;26387;50.114;8.662;2022-09-27T05:26:34;12.70;95.40
40702;DHT22;26387;50.114;8.662;2022-09-27T05:29:02;12.70;95.60
40702;DHT22;26387;50.114;8.662;2022-09-27T05:31:27;12.70;95.80
40702;DHT22;26387;50.114;8.662;2022-09-27T05:33:53;12.70;95.60
40702;DHT22;26387;50.114;8.662;2022-09-27T05:36:19;12.70;95.50
40702;DHT22;26387;50.114;8.662;2022-09-27T05:38:45;12.70;95.50
40702;DHT22;26387;50.114;8.662;2022-09-27T05:41:11;12.80;96.10
40702;DHT22;26387;50.114;8.662;2022-09-27T05:43:36;12.90;95.60
40702;DHT22;26387;50.114;8.662;2022-09-27T05:46:02;12.90;95.20
40702;DHT22;26387;50.114;8.662;2022-09-27T05:48:29;13.00;94.90
40702;DHT22;26387;50.114;8.662;2022-09-27T05:50:55;13.00;95.70
40702;DHT22;26387;50.114;8.662;2022-09-27T05:53:20;13.00;95.50
40702;DHT22;26387;50.114;8.662;2022-09-27T05:55:46;13.20;95.00
40702;DHT22;26387;50.114;8.662;2022-09-27T05:58:13;13.10;95.30
40702;DHT22;26387;50.114;8.662;2022-09-27T06:00:40;13.20;95.00
40702;DHT22;26387;50.114;8.662;2022-09-27T06:03:06;13.10;95.00
40702;DHT22;26387;50.114;8.662;2022-09-27T06:05:36;13.10;95.10
40702;DHT22;26387;50.114;8.662;2022-09-27T06:08:03;13.20;95.20
40702;DHT22;26387;50.114;8.662;2022-09-27T06:10:29;13.20;94.90
40702;DHT22;26387;50.114;8.662;2022-09-27T06:12:59;13.20;94.70
40702;DHT22;26387;50.114;8.662;2022-09-27T06:15:27;13.20;94.60
40702;DHT22;26387;50.114;8.662;2022-09-27T06:17:52;13.20;94.40
40702;DHT22;26387;50.114;8.662;2022-09-27T06:20:18;13.10;94.80
40702;DHT22;26387;50.114;8.662;2022-09-27T06:22:45;13.20;94.50
40702;DHT22;26387;50.114;8.662;2022-09-27T06:25:10;13.20;94.60
40702;DHT22;26387;50.114;8.662;2022-09-27T06:27:36;13.20;94.30
40702;DHT22;26387;50.114;8.662;2022-09-27T06:30:02;13.30;94.70
40702;DHT22;26387;50.114;8.662;2022-09-27T06:32:28;13.40;94.20
40702;DHT22;26387;50.114;8.662;2022-09-27T06:34:53;13.50;94.20
40702;DHT22;26387;50.114;8.662;2022-09-27T06:37:19;13.60;94.10
40702;DHT22;26387;50.114;8.662;2022-09-27T06:39:44;13.60;94.00
40702;DHT22;26387;50.114;8.662;2022-09-27T06:42:13;13.60;93.70
40702;DHT22;26387;50.114;8.662;2022-09-27T06:44:38;13.60;94.00
40702;DHT22;26387;50.114;8.662;2022-09-27T06:47:04;13.70;93.90
40702;DHT22;26387;50.114;8.662;2022-09-27T06:49:29;13.70;93.70
40702;DHT22;26387;50.114;8.662;2022-09-27T06:51:55;13.80;93.40
40702;DHT22;26387;50.114;8.662;2022-09-27T06:54:21;13.80;93.70
40702;DHT22;26387;50.114;8.662;2022-09-27T06:56:46;13.80;93.80
40702;DHT22;26387;50.114;8.662;2022-09-27T06:59:12;13.90;93.60
40702;DHT22;26387;50.114;8.662;2022-09-27T07:01:56;13.90;93.70
40702;DHT22;26387;50.114;8.662;2022-09-27T07:04:22;13.90;93.20
40702;DHT22;26387;50.114;8.662;2022-09-27T07:06:48;13.90;92.60
40702;DHT22;26387;50.114;8.662;2022-09-27T07:09:13;13.90;92.90
40702;DHT22;26387;50.114;8.662;2022-09-27T07:11:39;13.90;92.90
40702;DHT22;26387;50.114;8.662;2022-09-27T07:14:07;13.80;92.40
40702;DHT22;26387;50.114;8.662;2022-09-27T07:16:34;13.90;92.40
40702;DHT22;26387;50.114;8.662;2022-09-27T07:19:01;14.00;92.40
40702;DHT22;26387;50.114;8.662;2022-09-27T07:21:26;14.10;92.30
40702;DHT22;26387;50.114;8.662;2022-09-27T07:23:52;14.20;92.10
40702;DHT22;26387;50.114;8.662;2022-09-27T07:26:18;14.20;91.90
40702;DHT22;26387;50.114;8.662;2022-09-27T07:28:44;14.20;91.60
40702;DHT22;26387;50.114;8.662;2022-09-27T07:31:10;14.30;91.60
40702;DHT22;26387;50.114;8.662;2022-09-27T07:33:36;14.40;91.40
40702;DHT22;26387;50.114;8.662;2022-09-27T07:36:08;14.50;91.30
40702;DHT22;26387;50.114;8.662;2022-09-27T07:38:33;14.50;91.00
40702;DHT22;26387;50.114;8.662;2022-09-27T07:41:04;14.60;91.10
40702;DHT22;26387;50.114;8.662;2022-09-27T07:43:29;14.60;91.20
40702;DHT22;26387;50.114;8.662;2022-09-27T07:45:55;14.60;90.20
40702;DHT22;26387;50.114;8.662;2022-09-27T07:48:20;14.50;90.20
40702;DHT22;26387;50.114;8.662;2022-09-27T07:50:46;14.40;90.10
40702;DHT22;26387;50.114;8.662;2022-09-27T07:53:12;14.40;90.40
40702;DHT22;26387;50.114;8.662;2022-09-27T07:55:38;14.50;90.60
40702;DHT22;26387;50.114;8.662;2022-09-27T07:58:04;14.60;90.00
40702;DHT22;26387;50.114;8.662;2022-09-27T08:00:30;14.70;89.80
40702;DHT22;26387;50.114;8.662;2022-09-27T08:02:55;14.80;89.50
40702;DHT22;26387;50.114;8.662;2022-09-27T08:05:21;14.90;88.90
40702;DHT22;26387;50.114;8.662;2022-09-27T08:07:46;14.90;88.50
40702;DHT22;26387;50.114;8.662;2022-09-27T08:10:12;14.90;88.30
40702;DHT22;26387;50.114;8.662;2022-09-27T08:12:37;15.10;88.30
40702;DHT22;26387;50.114;8.662;2022-09-27T08:15:06;15.10;86.80
40702;DHT22;26387;50.114;8.662;2022-09-27T08:17:31;15.10;86.20
40702;DHT22;26387;50.114;8.662;2022-09-27T08:19:57;15.20;86.20
40702;DHT22;26387;50.114;8.662;2022-09-27T08:22:23;15.20;86.00
40702;DHT22;26387;50.114;8.662;2022-09-27T08:24:48;15.30;86.10
40702;DHT22;26387;50.114;8.662;2022-09-27T08:27:14;15.50;87.10
40702;DHT22;26387;50.114;8.662;2022-09-27T08:29:40;15.30;84.20
40702;DHT22;26387;50.114;8.662;2022-09-27T08:32:09;15.30;84.90
40702;DHT22;26387;50.114;8.662;2022-09-27T08:34:35;15.30;84.50
40702;DHT22;26387;50.114;8.662;2022-09-27T08:37:01;15.20;84.10
40702;DHT22;26387;50.114;8.662;2022-09-27T08:39:27;15.20;85.80
40702;DHT22;26387;50.114;8.662;2022-09-27T08:42:00;15.20;83.70
40702;DHT22;26387;50.114;8.662;2022-09-27T08:47:05;15.40;84.10
40702;DHT22;26387;50.114;8.662;2022-09-27T08:49:37;15.40;83.90
40702;DHT22;26387;50.114;8.662;2022-09-27T10:24:57;17.50;71.40
40702;DHT22;26387;50.114;8.662;2022-09-27T10:27:24;17.30;70.80
40702;DHT22;26387;50.114;8.662;2022-09-27T10:29:56;17.30;71.90
40702;DHT22;26387;50.114;8.662;2022-09-27T10:32:26;17.50;70.80
40702;DHT22;26387;50.114;8.662;2022-09-27T10:35:16;17.70;70.10
40702;DHT22;26387;50.114;8.662;2022-09-27T10:59:39;17.30;71.10
40702;DHT22;26387;50.114;8.662;2022-09-27T11:02:05;17.10;72.10
40702;DHT22;26387;50.114;8.662;2022-09-27T11:05:01;17.10;72.30
40702;DHT22;26387;50.114;8.662;2022-09-27T11:07:27;16.90;72.70
40702;DHT22;26387;50.114;8.662;2022-09-27T11:09:53;16.80;72.30
40702;DHT22;26387;50.114;8.662;2022-09-27T11:12:19;16.90;72.50
40702;DHT22;26387;50.114;8.662;2022-09-27T11:14:55;16.80;72.00
40702;DHT22;26387;50.114;8.662;2022-09-27T11:25:31;17.10;72.30
40702;DHT22;26387;50.114;8.662;2022-09-27T11:28:04;17.10;72.70
40702;DHT22;26387;50.114;8.662;2022-09-27T11:36:05;17.50;71.80
40702;DHT22;26387;50.114;8.662;2022-09-27T11:38:50;17.60;67.60
40702;DHT22;26387;50.114;8.662;2022-09-27T11:44:05;17.70;65.80
40702;DHT22;26387;50.114;8.662;2022-09-27T11:46:34;17.70;66.50
40702;DHT22;26387;50.114;8.662;2022-09-27T11:51:52;17.50;66.70
40702;DHT22;26387;50.114;8.662;2022-09-27T11:54:27;17.60;66.80
40702;DHT22;26387;50.114;8.662;2022-09-27T11:56:58;17.50;65.90
40702;DHT22;26387;50.114;8.662;2022-09-27T12:07:14;17.40;67.50
40702;DHT22;26387;50.114;8.662;2022-09-27T12:09:42;17.50;66.70
40702;DHT22;26387;50.114;8.662;2022-09-27T12:12:10;17.60;65.40
40702;DHT22;26387;50.114;8.662;2022-09-27T12:14:41;17.50;64.80
40702;DHT22;26387;50.114;8.662;2022-09-27T12:17:17;17.80;65.80
40702;DHT22;26387;50.114;8.662;2022-09-27T14:02:52;18.50;61.40
40702;DHT22;26387;50.114;8.662;2022-09-27T14:05:54;17.80;68.50
40702;DHT22;26387;50.114;8.662;2022-09-27T14:10:44;17.50;67.30
40702;DHT22;26387;50.114;8.662;2022-09-27T14:13:09;17.50;67.30
40702;DHT22;26387;50.114;8.662;2022-09-27T14:15:38;17.30;68.00
40702;DHT22;26387;50.114;8.662;2022-09-27T14:18:04;17.30;68.50
40702;DHT22;26387;50.114;8.662;2022-09-27T14:20:41;17.40;68.00
40702;DHT22;26387;50.114;8.662;2022-09-27T14:23:40;17.60;67.60
40702;DHT22;26387;50.114;8.662;2022-09-27T14:25:58;17.70;66.50
40702;DHT22;26387;50.114;8.662;2022-09-27T14:28:26;17.80;67.20
40702;DHT22;26387;50.114;8.662;2022-09-27T14:33:50;18.20;65.20
40702;DHT22;26387;50.114;8.662;2022-09-27T14:36:26;18.10;65.70
40702;DHT22;26387;50.114;8.662;2022-09-27T14:39:13;18.30;65.60
40702;DHT22;26387;50.114;8.662;2022-09-27T14:41:39;18.50;65.60
40702;DHT22;26387;50.114;8.662;2022-09-27T14:44:09;18.60;64.60
40702;DHT22;26387;50.114;8.662;2022-09-27T15:01:18;18.80;65.00
40702;DHT22;26387;50.114;8.662;2022-09-27T15:06:17;17.90;66.80
40702;DHT22;26387;50.114;8.662;2022-09-27T15:08:44;18.00;65.70
40702;DHT22;26387;50.114;8.662;2022-09-27T15:11:14;17.90;65.10
40702;DHT22;26387;50.114;8.662;2022-09-27T15:13:39;17.70;66.20
40702;DHT22;26387;50.114;8.662;2022-09-27T15:16:08;17.60;65.80
40702;DHT22;26387;50.114;8.662;2022-09-27T15:18:42;17.50;66.40
40702;DHT22;26387;50.114;8.662;2022-09-27T15:21:08;17.30;68.80
40702;DHT22;26387;50.114;8.662;2022-09-27T15:23:36;17.10;71.40
40702;DHT22;26387;50.114;8.662;2022-09-27T15:30:55;17.00;73.10
40702;DHT22;26387;50.114;8.662;2022-09-27T15:35:50;16.60;76.30
40702;DHT22;26387;50.114;8.662;2022-09-27T15:45:58;15.90;75.90
40702;DHT22;26387;50.114;8.662;2022-09-27T15:48:27;15.60;77.50
40702;DHT22;26387;50.114;8.662;2022-09-27T15:50:53;15.40;81.20
40702;DHT22;26387;50.114;8.662;2022-09-27T15:56:00;15.30;83.60
40702;DHT22;26387;50.114;8.662;2022-09-27T15:58:25;15.30;82.50
40702;DHT22;26387;50.114;8.662;2022-09-27T16:00:55;15.30;83.60
40702;DHT22;26387;50.114;8.662;2022-09-27T16:03:22;15.30;83.10
40702;DHT22;26387;50.114;8.662;2022-09-27T16:05:48;15.20;82.60
40702;DHT22;26387;50.114;8.662;2022-09-27T16:08:13;15.20;83.00
40702;DHT22;26387;50.114;8.662;2022-09-27T16:10:40;15.10;84.70
40702;DHT22;26387;50.114;8.662;2022-09-27T16:13:07;15.00;84.80
40702;DHT22;26387;50.114;8.662;2022-09-27T16:15:32;14.90;85.40
40702;DHT22;26387;50.114;8.662;2022-09-27T16:17:58;14.80;87.00
40702;DHT22;26387;50.114;8.662;2022-09-27T16:20:25;14.90;88.20
40702;DHT22;26387;50.114;8.662;2022-09-27T16:22:51;14.80;88.50
40702;DHT22;26387;50.114;8.662;2022-09-27T16:25:18;14.70;87.00
40702;DHT22;26387;50.114;8.662;2022-09-27T16:27:43;14.60;87.80
40702;DHT22;26387;50.114;8.662;2022-09-27T16:30:09;14.40;87.60
40702;DHT22;26387;50.114;8.662;2022-09-27T16:32:45;14.40;89.10
40702;DHT22;26387;50.114;8.662;2022-09-27T16:35:11;14.30;91.00
40702;DHT22;26387;50.114;8.662;2022-09-27T16:37:37;14.30;91.10
40702;DHT22;26387;50.114;8.662;2022-09-27T16:40:03;14.20;89.50
40702;DHT22;26387;50.114;8.662;2022-09-27T16:42:29;14.10;90.90
40702;DHT22;26387;50.114;8.662;2022-09-27T16:44:55;14.20;91.00
40702;DHT22;26387;50.114;8.662;2022-09-27T16:47:20;14.20;91.20
40702;DHT22;26387;50.114;8.662;2022-09-27T16:49:45;14.10;91.80
40702;DHT22;26387;50.114;8.662;2022-09-27T16:52:29;14.10;91.30
40702;DHT22;26387;50.114;8.662;2022-09-27T16:54:56;14.10;91.70
40702;DHT22;26387;50.114;8.662;2022-09-27T16:57:22;14.20;92.10
40702;DHT22;26387;50.114;8.662;2022-09-27T16:59:47;14.30;92.40
40702;DHT22;26387;50.114;8.662;2022-09-27T17:02:13;14.20;92.60
40702;DHT22;26387;50.114;8.662;2022-09-27T17:04:38;14.30;92.70
40702;DHT22;26387;50.114;8.662;2022-09-27T17:07:04;14.30;92.50
40702;DHT22;26387;50.114;8.662;2022-09-27T17:09:29;14.20;92.80
40702;DHT22;26387;50.114;8.662;2022-09-27T17:11:55;14.20;92.50
40702;DHT22;26387;50.114;8.662;2022-09-27T17:14:20;14.20;92.80
40702;DHT22;26387;50.114;8.662;2022-09-27T17:16:46;14.20;92.60
40702;DHT22;26387;50.114;8.662;2022-09-27T17:19:13;14.10;92.40
40702;DHT22;26387;50.114;8.662;2022-09-27T17:21:40;14.20;93.10
40702;DHT22;26387;50.114;8.662;2022-09-27T17:24:06;14.30;92.90
40702;DHT22;26387;50.114;8.662;2022-09-27T17:26:32;14.30;92.70
40702;DHT22;26387;50.114;8.662;2022-09-27T17:28:58;14.30;92.30
40702;DHT22;26387;50.114;8.662;2022-09-27T17:31:25;14.40;92.10
40702;DHT22;26387;50.114;8.662;2022-09-27T17:33:51;14.40;92.00
40702;DHT22;26387;50.114;8.662;2022-09-27T17:36:21;14.30;91.60
40702;DHT22;26387;50.114;8.662;2022-09-27T17:38:47;14.20;92.70
40702;DHT22;26387;50.114;8.662;2022-09-27T17:41:13;14.20;93.10
40702;DHT22;26387;50.114;8.662;2022-09-27T17:43:39;14.20;93.40
40702;DHT22;26387;50.114;8.662;2022-09-27T17:46:10;14.20;93.50
40702;DHT22;26387;50.114;8.662;2022-09-27T17:48:36;14.30;93.40
40702;DHT22;26387;50.114;8.662;2022-09-27T17:51:20;14.30;92.70
40702;DHT22;26387;50.114;8.662;2022-09-27T17:53:46;14.30;92.80
40702;DHT22;26387;50.114;8.662;2022-09-27T17:56:12;14.20;93.80
40702;DHT22;26387;50.114;8.662;2022-09-27T17:58:39;14.10;93.60
40702;DHT22;26387;50.114;8.662;2022-09-27T18:01:08;14.10;93.80
40702;DHT22;26387;50.114;8.662;2022-09-27T18:03:34;14.10;93.40
40702;DHT22;26387;50.114;8.662;2022-09-27T18:06:03;14.10;92.80
40702;DHT22;26387;50.114;8.662;2022-09-27T18:08:29;14.10;92.70
40702;DHT22;26387;50.114;8.662;2022-09-27T18:11:01;14.10;93.30
40702;DHT22;26387;50.114;8.662;2022-09-27T18:13:27;13.90;93.50
40702;DHT22;26387;50.114;8.662;2022-09-27T18:15:53;14.00;93.80
40702;DHT22;26387;50.114;8.662;2022-09-27T18:18:20;13.90;93.80
40702;DHT22;26387;50.114;8.662;2022-09-27T18:20:46;13.90;92.50
40702;DHT22;26387;50.114;8.662;2022-09-27T18:23:11;13.80;92.20
40702;DHT22;26387;50.114;8.662;2022-09-27T18:25:37;13.70;92.60
40702;DHT22;26387;50.114;8.662;2022-09-27T18:28:04;13.70;92.70
40702;DHT22;26387;50.114;8.662;2022-09-27T18:30:31;13.70;93.20
40702;DHT22;26387;50.114;8.662;2022-09-27T18:32:57;13.70;92.80
40702;DHT22;26387;50.114;8.662;2022-09-27T18:35:22;13.70;92.50
40702;DHT22;26387;50.114;8.662;2022-09-27T18:37:49;13.60;93.00
40702;DHT22;26387;50.114;8.662;2022-09-27T18:40:14;13.60;93.10
40702;DHT22;26387;50.114;8.662;2022-09-27T18:42:40;13.70;92.80
40702;DHT22;26387;50.114;8.662;2022-09-27T18:45:06;13.60;92.00
40702;DHT22;26387;50.114;8.662;2022-09-27T18:47:32;13.50;92.00
40702;DHT22;26387;50.114;8.662;2022-09-27T18:49:57;13.50;91.70
40702;DHT22;26387;50.114;8.662;2022-09-27T18:52:23;13.40;92.20
40702;DHT22;26387;50.114;8.662;2022-09-27T18:54:48;13.30;92.10
40702;DHT22;26387;50.114;8.662;2022-09-27T18:57:14;13.40;92.70
40702;DHT22;26387;50.114;8.662;2022-09-27T18:59:39;13.50;92.50
40702;DHT22;26387;50.114;8.662;2022-09-27T19:02:05;13.50;92.10
40702;DHT22;26387;50.114;8.662;2022-09-27T19:04:30;13.40;91.50
40702;DHT22;26387;50.114;8.662;2022-09-27T19:06:56;13.30;92.40
40702;DHT22;26387;50.114;8.662;2022-09-27T19:09:22;13.30;91.60
40702;DHT22;26387;50.114;8.662;2022-09-27T19:11:47;13.30;92.40
40702;DHT22;26387;50.114;8.662;2022-09-27T19:14:17;13.30;92.40
40702;DHT22;26387;50.114;8.662;2022-09-27T19:16:42;13.30;92.60
40702;DHT22;26387;50.114;8.662;2022-09-27T19:19:11;13.30;92.40
40702;DHT22;26387;50.114;8.662;2022-09-27T19:21:37;13.30;92.20
40702;DHT22;26387;50.114;8.662;2022-09-27T19:24:02;13.30;91.80
40702;DHT22;26387;50.114;8.662;2022-09-27T19:26:28;13.30;91.50
40702;DHT22;26387;50.114;8.662;2022-09-27T19:28:54;13.20;91.10
40702;DHT22;26387;50.114;8.662;2022-09-27T19:31:23;13.20;91.40
40702;DHT22;26387;50.114;8.662;2022-09-27T19:33:49;13.10;90.90
40702;DHT22;26387;50.114;8.662;2022-09-27T19:36:16;13.10;91.50
40702;DHT22;26387;50.114;8.662;2022-09-27T19:38:42;13.10;90.80
40702;DHT22;26387;50.114;8.662;2022-09-27T19:41:09;13.00;90.90
40702;DHT22;26387;50.114;8.662;2022-09-27T19:43:35;13.00;90.90
40702;DHT22;26387;50.114;8.662;2022-09-27T19:46:01;13.10;91.20
40702;DHT22;26387;50.114;8.662;2022-09-27T19:48:26;13.20;91.20
40702;DHT22;26387;50.114;8.662;2022-09-27T19:50:55;13.10;90.80
40702;DHT22;26387;50.114;8.662;2022-09-27T19:53:21;13.10;90.40
40702;DHT22;26387;50.114;8.662;2022-09-27T19:55:48;13.10;90.30
40702;DHT22;26387;50.114;8.662;2022-09-27T19:58:19;12.90;90.70
40702;DHT22;26387;50.114;8.662;2022-09-27T20:00:44;13.00;91.20
40702;DHT22;26387;50.114;8.662;2022-09-27T20:03:10;13.00;91.00
40702;DHT22;26387;50.114;8.662;2022-09-27T20:05:35;12.90;90.50
40702;DHT22;26387;50.114;8.662;2022-09-27T20:08:01;12.90;90.20
40702;DHT22;26387;50.114;8.662;2022-09-27T20:10:26;12.80;90.30
40702;DHT22;26387;50.114;8.662;2022-09-27T20:12:52;12.80;90.70
40702;DHT22;26387;50.114;8.662;2022-09-27T20:15:18;12.80;90.20
40702;DHT22;26387;50.114;8.662;2022-09-27T20:17:45;12.70;90.40
40702;DHT22;26387;50.114;8.662;2022-09-27T20:20:10;12.70;90.80
40702;DHT22;26387;50.114;8.662;2022-09-27T20:22:36;12.60;90.30
40702;DHT22;26387;50.114;8.662;2022-09-27T20:25:01;12.60;90.80
40702;DHT22;26387;50.114;8.662;2022-09-27T20:27:27;12.50;90.60
40702;DHT22;26387;50.114;8.662;2022-09-27T20:29:52;12.50;90.70
40702;DHT22;26387;50.114;8.662;2022-09-27T20:32:18;12.50;91.00
40702;DHT22;26387;50.114;8.662;2022-09-27T20:34:43;12.60;91.00
40702;DHT22;26387;50.114;8.662;2022-09-27T20:37:09;12.50;91.20
40702;DHT22;26387;50.114;8.662;2022-09-27T20:39:34;12.50;91.20
40702;DHT22;26387;50.114;8.662;2022-09-27T20:41:59;12.50;91.20
40702;DHT22;26387;50.114;8.662;2022-09-27T20:44:25;12.40;91.10
40702;DHT22;26387;50.114;8.662;2022-09-27T20:46:50;12.50;91.60
40702;DHT22;26387;50.114;8.662;2022-09-27T20:49:16;12.50;91.50
40702;DHT22;26387;50.114;8.662;2022-09-27T20:51:43;12.40;91.40
40702;DHT22;26387;50.114;8.662;2022-09-27T20:54:10;12.20;91.60
40702;DHT22;26387;50.114;8.662;2022-09-27T20:56:42;12.20;91.90
40702;DHT22;26387;50.114;8.662;2022-09-27T20:59:17;12.10;92.10
40702;DHT22;26387;50.114;8.662;2022-09-27T21:01:44;12.10;92.10
40702;DHT22;26387;50.114;8.662;2022-09-27T21:06:38;12.00;92.40